Aviation Digital Data Service (ADDS)

Output produced by METARs form (0412 UTC 26 April 2019)
found at http://www.aviationweather.gov/metar/data/
 
METAR text: BIIS 251800Z 02010G22KT 9999 FEW040 SCT060 14/01 Q1000
Conditions at: BIIS (ISAFJOROUR , IS) observed 1800 UTC 25 April 2019
Temperature: 14.0°C (57°F)
Dewpoint: 1.0°C (34°F) [RH = 41%]
Pressure (altimeter): 29.53 inches Hg (1000.0 mb)
Winds: from the NNE (20 degrees) at 12 MPH (10 knots; 5.1 m/s)
gusting to 25 MPH (22 knots; 11.3 m/s)
Visibility: 6 or more miles (10+ km)
Ceiling: at least 12,000 feet AGL
Clouds: few clouds at 4000 feet AGL
scattered clouds at 6000 feet AGL
Weather: no significant weather observed at this time

METAR text: BIIS 251700Z 03018G28KT 9999 FEW040 SCT060 14/02 Q1001
Conditions at: BIIS (ISAFJOROUR , IS) observed 1700 UTC 25 April 2019
Temperature: 14.0°C (57°F)
Dewpoint: 2.0°C (36°F) [RH = 44%]
Pressure (altimeter): 29.56 inches Hg (1001.0 mb)
Winds: from the NNE (30 degrees) at 21 MPH (18 knots; 9.3 m/s)
gusting to 32 MPH (28 knots; 14.4 m/s)
Visibility: 6 or more miles (10+ km)
Ceiling: at least 12,000 feet AGL
Clouds: few clouds at 4000 feet AGL
scattered clouds at 6000 feet AGL
Weather: no significant weather observed at this time

METAR text: BIIS 251600Z 03014G24KT 9999 FEW040 14/03 Q1001
Conditions at: BIIS (ISAFJOROUR , IS) observed 1600 UTC 25 April 2019
Temperature: 14.0°C (57°F)
Dewpoint: 3.0°C (37°F) [RH = 47%]
Pressure (altimeter): 29.56 inches Hg (1001.0 mb)
Winds: from the NNE (30 degrees) at 16 MPH (14 knots; 7.2 m/s)
gusting to 28 MPH (24 knots; 12.3 m/s)
Visibility: 6 or more miles (10+ km)
Ceiling: at least 12,000 feet AGL
Clouds: few clouds at 4000 feet AGL
Weather: no significant weather observed at this time

METAR text: BIIS 251500Z 04004KT 9999 FEW040 15/05 Q1001
Conditions at: BIIS (ISAFJOROUR , IS) observed 1500 UTC 25 April 2019
Temperature: 15.0°C (59°F)
Dewpoint: 5.0°C (41°F) [RH = 51%]
Pressure (altimeter): 29.56 inches Hg (1001.0 mb)
Winds: from the NE (40 degrees) at 5 MPH (4 knots; 2.1 m/s)
Visibility: 6 or more miles (10+ km)
Ceiling: at least 12,000 feet AGL
Clouds: few clouds at 4000 feet AGL
Weather: no significant weather observed at this time

METAR text: BIIS 251400Z 08004KT 9999 FEW040 15/05 Q1002
Conditions at: BIIS (ISAFJOROUR , IS) observed 1400 UTC 25 April 2019
Temperature: 15.0°C (59°F)
Dewpoint: 5.0°C (41°F) [RH = 51%]
Pressure (altimeter): 29.59 inches Hg (1002.0 mb)
Winds: from the E (80 degrees) at 5 MPH (4 knots; 2.1 m/s)
Visibility: 6 or more miles (10+ km)
Ceiling: at least 12,000 feet AGL
Clouds: few clouds at 4000 feet AGL
Weather: no significant weather observed at this time

METAR text: BIIS 251300Z VRB04KT CAVOK 14/05 Q1002
Conditions at: BIIS (ISAFJOROUR , IS) observed 1300 UTC 25 April 2019
Temperature: 14.0°C (57°F)
Dewpoint: 5.0°C (41°F) [RH = 55%]
Pressure (altimeter): 29.59 inches Hg (1002.0 mb)
Winds: variable direction winds at 5 MPH (4 knots; 2.1 m/s)
Visibility: 6 or more miles (10+ km)
Ceiling: ceiling and visibility are OK
Clouds: unknown
Weather: no significant weather observed at this time

METAR text: BIIS 251200Z VRB04KT CAVOK 14/06 Q1002
Conditions at: BIIS (ISAFJOROUR , IS) observed 1200 UTC 25 April 2019
Temperature: 14.0°C (57°F)
Dewpoint: 6.0°C (43°F) [RH = 58%]
Pressure (altimeter): 29.59 inches Hg (1002.0 mb)
Winds: variable direction winds at 5 MPH (4 knots; 2.1 m/s)
Visibility: 6 or more miles (10+ km)
Ceiling: ceiling and visibility are OK
Clouds: unknown
Weather: no significant weather observed at this time

METAR text: BIIS 251100Z VRB03KT CAVOK 09/06 Q1002
Conditions at: BIIS (ISAFJOROUR , IS) observed 1100 UTC 25 April 2019
Temperature: 9.0°C (48°F)
Dewpoint: 6.0°C (43°F) [RH = 81%]
Pressure (altimeter): 29.59 inches Hg (1002.0 mb)
Winds: variable direction winds at 3 MPH (3 knots; 1.5 m/s)
Visibility: 6 or more miles (10+ km)
Ceiling: ceiling and visibility are OK
Clouds: unknown
Weather: no significant weather observed at this time

METAR text: BIIS 251000Z VRB03KT CAVOK 06/04 Q1001
Conditions at: BIIS (ISAFJOROUR , IS) observed 1000 UTC 25 April 2019
Temperature: 6.0°C (43°F)
Dewpoint: 4.0°C (39°F) [RH = 87%]
Pressure (altimeter): 29.56 inches Hg (1001.0 mb)
Winds: variable direction winds at 3 MPH (3 knots; 1.5 m/s)
Visibility: 6 or more miles (10+ km)
Ceiling: ceiling and visibility are OK
Clouds: unknown
Weather: no significant weather observed at this time

METAR text: BIIS 250900Z 06003KT CAVOK 06/04 Q1001
Conditions at: BIIS (ISAFJOROUR , IS) observed 0900 UTC 25 April 2019
Temperature: 6.0°C (43°F)
Dewpoint: 4.0°C (39°F) [RH = 87%]
Pressure (altimeter): 29.56 inches Hg (1001.0 mb)
Winds: from the ENE (60 degrees) at 3 MPH (3 knots; 1.5 m/s)
Visibility: 6 or more miles (10+ km)
Ceiling: ceiling and visibility are OK
Clouds: unknown
Weather: no significant weather observed at this time

METAR text: BIIS 250800Z 20002KT CAVOK 05/04 Q1001
Conditions at: BIIS (ISAFJOROUR , IS) observed 0800 UTC 25 April 2019
Temperature: 5.0°C (41°F)
Dewpoint: 4.0°C (39°F) [RH = 93%]
Pressure (altimeter): 29.56 inches Hg (1001.0 mb)
Winds: from the SSW (200 degrees) at 2 MPH (2 knots; 1.0 m/s)
Visibility: 6 or more miles (10+ km)
Ceiling: ceiling and visibility are OK
Clouds: unknown
Weather: no significant weather observed at this time

METAR text: BIIS 250700Z VRB02KT CAVOK 04/02 Q1000
Conditions at: BIIS (ISAFJOROUR , IS) observed 0700 UTC 25 April 2019
Temperature: 4.0°C (39°F)
Dewpoint: 2.0°C (36°F) [RH = 87%]
Pressure (altimeter): 29.53 inches Hg (1000.0 mb)
Winds: variable direction winds at 2 MPH (2 knots; 1.0 m/s)
Visibility: 6 or more miles (10+ km)
Ceiling: ceiling and visibility are OK
Clouds: unknown
Weather: no significant weather observed at this time

METAR text: BIIS 241800Z 04004KT 9999 FEW025 SCT035 OVC050 06/04 Q1000
Conditions at: BIIS (ISAFJOROUR , IS) observed 1800 UTC 24 April 2019
Temperature: 6.0°C (43°F)
Dewpoint: 4.0°C (39°F) [RH = 87%]
Pressure (altimeter): 29.53 inches Hg (1000.0 mb)
Winds: from the NE (40 degrees) at 5 MPH (4 knots; 2.1 m/s)
Visibility: 6 or more miles (10+ km)
Ceiling: 5000 feet AGL
Clouds: few clouds at 2500 feet AGL
scattered clouds at 3500 feet AGL
overcast cloud deck at 5000 feet AGL
Weather: no significant weather observed at this time

Forecast for: BIIS (ISAFJOROUR , IS)
Text: TAF BIIS 251629Z 2517/2602 03016KT 9999 BKN050
Forecast period: 1700 UTC 25 April 2019 to 0200 UTC 26 April 2019
Forecast type: FROM: standard forecast or significant change
Winds: from the NNE (30 degrees) at 18 MPH (16 knots; 8.2 m/s)
Visibility: 6 or more miles 10+ km)
Ceiling: 5000 feet AGL
Clouds: broken clouds at 5000 feet AGL
Weather: no significant weather forecast for this period
Text: TEMPO 2520/2602 03015G33KT
Forecast period: 2000 UTC 25 April 2019 to 0200 UTC 26 April 2019
Forecast type: TEMPORARY: The following changes expected for less than half the time period
Winds: from the NNE (30 degrees) at 17 MPH (15 knots; 7.7 m/s)
gusting to 38 MPH (33 knots; 17.0 m/s)
Visibility: missing
Ceiling: unknown
Clouds: missing
Weather: no significant weather forecast for this period